Portada
METAR-TAF:

METAR-TAF

Aeroports :

Wuhan, Xina

latitud: 30-37N, longitud: 114-08E, altitud: 23 m

Observació

L'informe es va fer fa 15 minuts, a les 18:00 UTC
Vent 14 kt del Nord/Nord-Est
Temperatura 9°C
Humitat 76%
Pressió 1021 hPa
Visibilitat 10 km o més
pluja

METAR: ZHHH 211800Z 02007MPS 9999 -RA NSC 09/05 Q1021 NOSIG

Hora: 02:15 (18:15 UTC)

Pronòstic

L'informe es va fer fa 3 hores i 3 minuts, a les 15:12 UTC
Pronòstic vàlid del 21 a les 18 UTC al 22 a les 18 UTC
Vent 8 kt del Nord/Nord-Est
Visibilitat: 6000 m

TAF: ZHHH 211512Z 2118/2218 03004MPS 6000 NSC TX12/2207Z TN06/2121Z

Observacions i pronòstics meteorològics de més de 4000 aeroports (METAR i TAF).

Les estacions disponibles són els punts grocs i vermells al mapa.

Posi el ratolí al punt desitjat per veure el nom de l'estació.

Feu clic per veure les observacions i els pronòstics meteorològics.

Per canviar el mapa: feu clic els botons verds amb una creu de color negre per apropar; al botó verd amb un guió per allunyar la imatge; o en les fletxes verdes per a mapes adjacents.


METAR-TAF: